Time;durP1;ratioP1;P1;durP2;ratioP2;P2;SDS_P1;SDS_P2;PMS_P1;PMS_P2;Temp;Humidity;BMP_temperature;BMP_pressure;BME280_temperature;BME280_humidity;BME280_pressure;Samples;Min_cycle;Max_cycle;Signal;HPM_P1;HPM_P2
2021/04/13 00:00:02;;;;;;;41.84;24.79;;;;;;;8.49;62.84;100214.23;322736;164;863754;-61
2021/04/13 00:01:21;;;;;;;44.24;24.38;;;;;;;8.48;63.15;100220.19;319853;163;864015;-61
2021/04/13 00:02:41;;;;;;;43.34;24.31;;;;;;;8.46;63.32;100215.03;324577;163;856536;-61
2021/04/13 00:04:08;;;;;;;46.52;24.02;;;;;;;8.49;63.25;100211.66;324299;164;856065;-61
2021/04/13 00:05:16;;;;;;;43.54;24.51;;;;;;;8.49;62.96;100209.08;318549;166;856551;-61
2021/04/13 00:06:27;;;;;;;44.76;24.11;;;;;;;8.51;63.02;100215.11;317391;166;857319;-62
2021/04/13 00:07:30;;;;;;;45.48;24.86;;;;;;;8.52;62.92;100208.21;320450;163;857677;-61
2021/04/13 00:08:32;;;;;;;43.55;24.81;;;;;;;8.53;62.79;100204.77;323501;163;859061;-61
2021/04/13 00:09:34;;;;;;;46.65;25.05;;;;;;;8.55;62.85;100213.39;323630;163;856494;-61
2021/04/13 00:10:51;;;;;;;40.83;23.77;;;;;;;8.55;62.99;100214.27;324849;166;856329;-61
2021/04/13 00:12:02;;;;;;;47.29;23.32;;;;;;;8.54;62.91;100206.50;323808;163;856203;-62
2021/04/13 00:13:04;;;;;;;41.82;24.12;;;;;;;8.52;62.84;100210.80;321484;166;856564;-61
2021/04/13 00:14:06;;;;;;;43.30;23.53;;;;;;;8.49;63.07;100203.91;327048;163;856256;-62
2021/04/13 00:15:13;;;;;;;39.97;24.63;;;;;;;8.48;63.17;100208.16;320618;166;856315;-61
2021/04/13 00:16:19;;;;;;;42.84;25.34;;;;;;;8.49;63.26;100203.91;321074;165;856289;-62
2021/04/13 00:17:22;;;;;;;42.81;23.61;;;;;;;8.50;63.22;100207.34;330721;159;856964;-61
2021/04/13 00:18:27;;;;;;;42.04;23.72;;;;;;;8.50;63.25;100208.22;332282;159;856172;-63
2021/04/13 00:19:35;;;;;;;38.42;23.78;;;;;;;8.47;63.28;100208.14;331635;160;863914;-61
2021/04/13 00:20:57;;;;;;;41.36;23.46;;;;;;;8.48;63.48;100204.70;331193;161;856726;-61
2021/04/13 00:21:58;;;;;;;41.69;23.83;;;;;;;8.48;63.48;100204.70;334267;159;856798;-61
2021/04/13 00:23:00;;;;;;;45.05;24.01;;;;;;;8.48;63.59;100205.58;332490;159;856262;-61
2021/04/13 00:24:06;;;;;;;42.90;24.40;;;;;;;8.48;63.48;100203.00;329434;162;856395;-61
2021/04/13 00:25:08;;;;;;;37.36;23.34;;;;;;;8.48;63.32;100205.58;326797;160;856400;-61
2021/04/13 00:26:13;;;;;;;39.93;24.59;;;;;;;8.48;63.34;100200.42;332030;159;856474;-61
2021/04/13 00:27:15;;;;;;;40.39;23.92;;;;;;;8.49;63.28;100196.17;337356;159;856479;-62
2021/04/13 00:28:25;;;;;;;42.62;25.22;;;;;;;8.51;63.26;100209.06;329052;157;856466;-61
2021/04/13 00:29:29;;;;;;;44.24;24.74;;;;;;;8.52;63.19;100193.61;331880;161;864461;-62
2021/04/13 00:30:43;;;;;;;39.12;24.66;;;;;;;8.51;63.09;100199.63;331211;161;856274;-61
2021/04/13 00:31:48;;;;;;;46.78;25.39;;;;;;;8.52;63.05;100200.47;331719;159;856371;-62
2021/04/13 00:33:01;;;;;;;47.41;24.76;;;;;;;8.51;62.98;100203.91;326489;164;856220;-62
2021/04/13 00:34:03;;;;;;;37.27;24.16;;;;;;;8.49;63.08;100203.91;326874;160;856949;-62
2021/04/13 00:35:15;;;;;;;37.59;24.21;;;;;;;8.48;63.25;100203.00;332242;161;856207;-62
2021/04/13 00:36:15;;;;;;;37.89;23.22;;;;;;;8.49;63.43;100206.50;331171;160;863717;-62
2021/04/13 00:37:28;;;;;;;42.37;22.82;;;;;;;8.48;63.39;100205.58;320111;165;856257;-62
2021/04/13 00:38:32;;;;;;;39.97;24.08;;;;;;;8.48;63.25;100207.28;334202;159;864425;-62
2021/04/13 00:39:34;;;;;;;42.48;23.64;;;;;;;8.49;63.07;100203.91;331467;157;856447;-62
2021/04/13 00:40:37;;;;;;;37.82;22.21;;;;;;;8.50;63.11;100207.34;332898;159;856664;-62
2021/04/13 00:41:42;;;;;;;39.62;24.01;;;;;;;8.49;63.07;100206.50;331870;160;857227;-62
2021/04/13 00:42:43;;;;;;;38.69;22.74;;;;;;;8.49;63.07;100206.50;330828;160;856361;-62
2021/04/13 00:43:51;;;;;;;36.62;22.86;;;;;;;8.51;63.36;100206.48;335039;159;856516;-62
2021/04/13 00:44:56;;;;;;;39.94;23.51;;;;;;;8.49;63.26;100206.50;325494;159;864153;-62
2021/04/13 00:45:57;;;;;;;41.74;24.85;;;;;;;8.48;63.25;100204.70;325034;162;856526;-62
2021/04/13 00:47:05;;;;;;;41.34;24.16;;;;;;;8.45;63.27;100207.27;334119;159;864541;-62
2021/04/13 00:48:07;;;;;;;47.01;33.06;;;;;;;8.43;63.47;100207.28;330843;160;863873;-62
2021/04/13 00:49:09;;;;;;;75.81;49.79;;;;;;;8.43;63.48;100207.28;332267;159;856361;-62
2021/04/13 00:50:16;;;;;;;63.82;48.05;;;;;;;8.41;63.50;100208.99;331919;160;856506;-62
2021/04/13 00:51:28;;;;;;;61.19;46.41;;;;;;;8.42;63.52;100208.14;331236;157;856958;-63
2021/04/13 00:52:33;;;;;;;66.98;48.03;;;;;;;8.42;63.57;100210.72;331541;160;856330;-62
2021/04/13 00:53:35;;;;;;;56.48;43.67;;;;;;;8.43;63.50;100214.14;331058;159;856389;-62
2021/04/13 00:54:41;;;;;;;57.70;40.90;;;;;;;8.43;63.43;100208.98;332040;162;856158;-62
2021/04/13 00:55:49;;;;;;;61.33;38.82;;;;;;;8.45;63.38;100207.27;331773;160;856275;-62
2021/04/13 00:56:50;;;;;;;57.49;39.08;;;;;;;8.45;63.17;100208.15;332515;159;856299;-62
2021/04/13 00:57:56;;;;;;;51.17;34.71;;;;;;;8.45;63.18;100204.69;331906;159;856568;-63
2021/04/13 00:59:01;;;;;;;51.67;34.67;;;;;;;8.45;63.10;100209.85;334697;159;856297;-62
2021/04/13 01:00:04;;;;;;;48.49;28.63;;;;;;;8.45;63.18;100207.27;325364;164;856736;-62
2021/04/13 01:01:19;;;;;;;44.36;27.13;;;;;;;8.44;63.19;100205.55;326311;162;856893;-62
2021/04/13 01:02:26;;;;;;;48.32;29.43;;;;;;;8.42;63.07;100197.81;331469;159;856511;-63
2021/04/13 01:03:29;;;;;;;53.93;30.28;;;;;;;8.42;63.27;100202.09;330758;159;856305;-62
2021/04/13 01:04:56;;;;;;;51.11;28.83;;;;;;;8.43;63.37;100198.66;334188;159;856526;-62
2021/04/13 01:06:00;;;;;;;42.82;26.32;;;;;;;8.45;63.40;100208.15;327874;160;856309;-62
2021/04/13 01:07:11;;;;;;;40.69;25.21;;;;;;;8.47;63.35;100201.28;333343;159;856444;-63
2021/04/13 01:08:16;;;;;;;39.51;24.14;;;;;;;8.48;63.29;100202.13;331656;159;856421;-62
2021/04/13 01:09:22;;;;;;;41.64;24.60;;;;;;;8.47;63.39;100205.56;331223;159;856221;-62
2021/04/13 01:10:33;;;;;;;39.36;25.04;;;;;;;8.47;63.39;100205.56;331920;159;856536;-62
2021/04/13 01:11:50;;;;;;;41.14;23.48;;;;;;;8.48;63.32;100207.28;331847;159;856280;-62
2021/04/13 01:13:06;;;;;;;37.01;22.88;;;;;;;8.48;63.31;100209.87;331784;160;856449;-62
2021/04/13 01:14:08;;;;;;;40.50;22.38;;;;;;;8.48;63.22;100212.45;330701;160;856426;-62
2021/04/13 01:15:12;;;;;;;37.40;22.68;;;;;;;8.47;63.21;100210.72;331590;160;856744;-62
2021/04/13 01:16:16;;;;;;;39.89;23.81;;;;;;;8.47;63.32;100205.56;330257;162;856566;-62
2021/04/13 01:17:17;;;;;;;40.39;23.21;;;;;;;8.46;63.22;100212.45;324563;160;856508;-62
2021/04/13 01:18:24;;;;;;;39.43;23.44;;;;;;;8.43;63.09;100207.28;328750;162;856264;-62
2021/04/13 01:19:45;;;;;;;37.26;22.57;;;;;;;8.41;63.11;100214.16;330302;158;863705;-62
2021/04/13 01:21:37;;;;;;;48.38;23.11;;;;;;;8.42;63.11;100209.84;325627;164;856278;-63
2021/04/13 01:24:11;;;;;;;42.58;22.04;;;;;;;8.42;63.27;100207.26;331229;162;856286;-62
2021/04/13 01:25:12;;;;;;;39.26;23.65;;;;;;;8.43;63.21;100201.24;324657;162;856585;-62
2021/04/13 01:26:14;;;;;;;39.89;23.25;;;;;;;8.43;63.14;100201.24;325699;164;856600;-62
2021/04/13 01:27:16;;;;;;;40.80;22.90;;;;;;;8.42;63.10;100200.39;330426;157;856860;-62
2021/04/13 01:28:20;;;;;;;36.54;23.20;;;;;;;8.43;63.04;100203.82;328016;161;856510;-62
2021/04/13 01:29:25;;;;;;;40.00;23.91;;;;;;;8.44;62.98;100205.55;326057;163;857120;-62
2021/04/13 01:30:33;;;;;;;38.71;23.95;;;;;;;8.44;63.04;100202.97;325666;162;856487;-62
2021/04/13 01:31:49;;;;;;;40.15;23.34;;;;;;;8.45;63.12;100204.69;328853;163;856769;-63
2021/04/13 01:32:50;;;;;;;38.96;23.64;;;;;;;8.45;63.13;100210.73;325134;163;856324;-63
2021/04/13 01:33:54;;;;;;;43.73;23.76;;;;;;;8.45;63.05;100204.69;327622;162;856429;-62
2021/04/13 01:35:04;;;;;;;40.34;24.11;;;;;;;8.43;63.04;100208.98;323844;165;856450;-62
2021/04/13 01:36:02;;;;;;;42.86;23.67;;;;;;;8.40;63.16;100203.80;326927;161;863714;-62
2021/04/13 01:37:21;;;;;;;38.45;23.16;;;;;;;8.40;63.37;100211.55;327175;163;856349;-62
2021/04/13 01:38:28;;;;;;;41.15;23.42;;;;;;;8.40;63.29;100201.23;322295;163;856893;-62
2021/04/13 01:39:25;;;;;;;42.03;23.66;;;;;;;8.39;63.40;100205.54;327975;159;856232;-62
2021/04/13 01:40:42;;;;;;;40.56;23.95;;;;;;;8.39;63.40;100205.54;329069;163;856220;-62
2021/04/13 01:41:46;;;;;;;39.66;25.06;;;;;;;8.41;63.38;100205.53;326783;161;857650;-62
2021/04/13 01:42:42;;;;;;;39.36;24.51;;;;;;;8.41;63.58;100203.83;325013;163;856426;-62
2021/04/13 01:43:45;;;;;;;35.24;22.57;;;;;;;8.42;63.53;100210.72;324589;163;856933;-62
2021/04/13 01:44:49;;;;;;;42.17;24.14;;;;;;;8.43;63.56;100203.82;329350;159;856433;-62
2021/04/13 01:45:50;;;;;;;41.23;23.92;;;;;;;8.46;63.55;100201.25;328860;163;856639;-62
2021/04/13 01:46:52;;;;;;;40.12;24.11;;;;;;;8.46;63.48;100196.09;329230;161;856396;-62
2021/04/13 01:47:56;;;;;;;42.89;24.01;;;;;;;8.45;63.39;100197.83;328232;161;859273;-62
2021/04/13 01:48:57;;;;;;;42.33;24.63;;;;;;;8.47;63.50;100202.98;330629;161;856225;-62
2021/04/13 01:50:02;;;;;;;44.00;24.45;;;;;;;8.45;63.25;100202.98;329129;159;856368;-62
2021/04/13 01:51:05;;;;;;;48.68;24.44;;;;;;;8.43;63.36;100199.54;327347;162;856498;-62
2021/04/13 01:52:10;;;;;;;48.49;25.66;;;;;;;8.43;63.49;100193.50;328568;162;856367;-62
2021/04/13 01:53:14;;;;;;;42.17;24.45;;;;;;;8.41;63.36;100198.67;324712;161;856626;-62
2021/04/13 01:54:16;;;;;;;46.10;25.18;;;;;;;8.41;63.38;100196.09;323860;163;863941;-62
2021/04/13 01:55:21;;;;;;;44.62;24.40;;;;;;;8.42;63.44;100199.52;323884;162;856531;-61
2021/04/13 01:56:37;;;;;;;40.29;24.49;;;;;;;8.40;63.31;100198.64;327029;159;856563;-62
2021/04/13 01:57:51;;;;;;;41.59;25.16;;;;;;;8.38;63.54;100203.81;328919;161;856683;-62
2021/04/13 01:59:02;;;;;;;45.97;24.49;;;;;;;8.37;63.54;100196.93;329901;161;856420;-61
2021/04/13 02:00:11;;;;;;;43.22;25.43;;;;;;;8.33;63.45;100201.20;327107;161;856373;-62
2021/04/13 02:01:33;;;;;;;46.77;24.84;;;;;;;8.32;63.58;100207.20;329015;161;856251;-62
2021/04/13 02:02:36;;;;;;;41.65;24.23;;;;;;;8.32;63.79;100206.36;328604;161;856234;-62
2021/04/13 02:04:03;;;;;;;41.18;24.98;;;;;;;8.33;63.69;100208.09;328061;161;856262;-62
2021/04/13 02:05:08;;;;;;;40.49;24.47;;;;;;;8.34;63.59;100204.66;327671;162;856412;-62
2021/04/13 02:06:16;;;;;;;39.39;23.46;;;;;;;8.33;63.43;100206.36;330090;161;856425;-62
2021/04/13 02:07:47;;;;;;;40.48;23.09;;;;;;;8.34;63.44;100204.66;329170;161;856829;-63
2021/04/13 02:08:48;;;;;;;41.37;24.63;;;;;;;8.34;63.38;100202.08;329042;161;856915;-61
2021/04/13 02:09:53;;;;;;;41.73;24.27;;;;;;;8.36;63.35;100204.64;329764;162;856372;-62
2021/04/13 02:11:03;;;;;;;41.19;25.15;;;;;;;8.38;63.40;100205.52;327289;161;856334;-62
2021/04/13 02:12:08;;;;;;;41.56;22.93;;;;;;;8.38;63.31;100201.23;327935;163;863952;-62
2021/04/13 02:13:16;;;;;;;41.40;24.81;;;;;;;8.38;63.31;100210.67;324312;163;856287;-62
2021/04/13 02:14:18;;;;;;;45.15;24.67;;;;;;;8.37;63.26;100207.25;325780;163;856541;-61
2021/04/13 02:15:26;;;;;;;40.49;23.85;;;;;;;8.37;63.23;100204.67;328597;163;856578;-62
2021/04/13 02:16:37;;;;;;;44.12;24.22;;;;;;;8.38;63.26;100208.09;324043;163;856336;-62
2021/04/13 02:17:46;;;;;;;42.44;25.04;;;;;;;8.38;63.29;100210.67;323633;163;856555;-62
2021/04/13 02:18:49;;;;;;;44.55;23.39;;;;;;;8.37;63.63;100207.25;323654;163;856708;-62
2021/04/13 02:19:51;;;;;;;45.81;24.76;;;;;;;8.37;63.53;100209.83;324477;163;856316;-62
2021/04/13 02:20:52;;;;;;;40.63;23.98;;;;;;;8.37;63.51;100207.25;323423;166;856259;-61
2021/04/13 02:22:01;;;;;;;40.28;24.34;;;;;;;8.37;63.49;100209.83;318419;166;864017;-62
2021/04/13 02:23:04;;;;;;;47.45;24.78;;;;;;;8.39;63.50;100209.82;319030;168;857103;-62
2021/04/13 02:24:11;;;;;;;43.58;24.83;;;;;;;8.39;63.44;100208.12;319589;167;856396;-62
2021/04/13 02:25:15;;;;;;;44.58;24.48;;;;;;;8.39;63.46;100205.54;313279;165;856262;-61
2021/04/13 02:26:19;;;;;;;43.12;25.63;;;;;;;8.40;63.37;100206.39;319131;163;856685;-62
2021/04/13 02:27:22;;;;;;;45.57;25.39;;;;;;;8.40;63.29;100206.39;325408;163;856902;-62
2021/04/13 02:28:24;;;;;;;44.01;25.21;;;;;;;8.37;63.23;100206.37;319820;168;856542;-62
2021/04/13 02:29:37;;;;;;;41.55;25.61;;;;;;;8.36;63.32;100212.39;317403;166;864103;-62
2021/04/13 02:30:41;;;;;;;42.60;25.31;;;;;;;8.34;63.25;100207.23;322592;164;863819;-62
2021/04/13 02:31:48;;;;;;;37.83;24.66;;;;;;;8.33;63.31;100210.67;319471;168;856291;-62
2021/04/13 02:32:50;;;;;;;42.03;25.02;;;;;;;8.32;63.36;100202.05;323018;162;864123;-61
2021/04/13 02:33:52;;;;;;;37.87;24.03;;;;;;;8.32;63.53;100207.20;322203;165;857221;-62
2021/04/13 02:35:05;;;;;;;44.84;25.07;;;;;;;8.33;63.50;100203.77;319734;163;856391;-62
2021/04/13 02:36:10;;;;;;;42.12;24.27;;;;;;;8.35;63.38;100203.80;323046;165;863952;-62
2021/04/13 02:37:22;;;;;;;44.48;25.02;;;;;;;8.35;63.58;100198.64;324917;163;856258;-62
2021/04/13 02:38:27;;;;;;;42.43;25.15;;;;;;;8.35;63.80;100203.80;323813;163;856433;-62
2021/04/13 02:39:30;;;;;;;40.46;24.56;;;;;;;8.34;63.56;100202.92;323175;163;856214;-62
2021/04/13 02:40:41;;;;;;;44.08;25.60;;;;;;;8.34;63.53;100199.49;323353;164;856347;-62
2021/04/13 02:41:51;;;;;;;44.62;24.96;;;;;;;8.31;63.53;100200.33;322796;164;856278;-62
2021/04/13 02:42:55;;;;;;;41.40;26.51;;;;;;;8.30;63.61;100193.44;322140;165;856640;-62
2021/04/13 02:43:59;;;;;;;39.29;23.23;;;;;;;8.27;63.55;100196.00;317434;163;856388;-62
2021/04/13 02:45:03;;;;;;;39.13;24.71;;;;;;;8.24;63.75;100190.83;323284;166;856251;-62
2021/04/13 02:46:06;;;;;;;42.42;23.91;;;;;;;8.19;63.76;100198.56;323636;161;856221;-62
2021/04/13 02:47:11;;;;;;;41.12;25.09;;;;;;;8.16;63.93;100195.96;323477;162;863681;-62
2021/04/13 02:48:29;;;;;;;43.45;25.89;;;;;;;8.17;64.16;100197.69;319796;167;856562;-62
2021/04/13 02:49:31;;;;;;;40.67;25.64;;;;;;;8.17;64.26;100201.97;320140;166;856323;-62
2021/04/13 02:50:34;;;;;;;43.45;25.83;;;;;;;8.13;64.39;100198.52;326451;163;856274;-62
2021/04/13 02:51:38;;;;;;;41.59;25.13;;;;;;;8.13;64.58;100201.10;327329;163;856932;-62
2021/04/13 02:52:42;;;;;;;41.58;24.04;;;;;;;8.13;64.58;100201.10;323660;164;857060;-62
2021/04/13 02:53:56;;;;;;;43.65;24.96;;;;;;;8.13;64.75;100206.26;323258;165;856214;-62
2021/04/13 02:54:59;;;;;;;44.82;25.74;;;;;;;8.15;64.85;100206.25;322072;166;856871;-62
2021/04/13 02:56:01;;;;;;;43.71;25.20;;;;;;;8.16;64.89;100202.81;323293;164;856352;-61
2021/04/13 02:57:06;;;;;;;44.23;25.37;;;;;;;8.17;64.83;100205.42;324042;162;857507;-62
2021/04/13 02:58:10;;;;;;;41.23;25.30;;;;;;;8.21;64.74;100202.86;322594;161;864306;-62
2021/04/13 02:59:16;;;;;;;42.98;25.59;;;;;;;8.22;64.78;100202.01;324296;163;856412;-62
2021/04/13 03:00:25;;;;;;;47.19;26.32;;;;;;;8.24;64.67;100200.30;324640;163;856456;-62
2021/04/13 03:01:27;;;;;;;42.88;25.43;;;;;;;8.26;64.47;100196.86;324138;163;856230;-62
2021/04/13 03:02:42;;;;;;;39.89;25.82;;;;;;;8.25;64.67;100202.87;324341;163;856223;-62
2021/04/13 03:03:44;;;;;;;43.35;25.71;;;;;;;8.26;64.69;100193.43;319410;164;856280;-62
2021/04/13 03:04:48;;;;;;;43.16;25.31;;;;;;;8.26;64.91;100196.01;324531;163;856752;-62
2021/04/13 03:05:51;;;;;;;42.30;26.06;;;;;;;8.28;65.21;100199.46;318154;166;856331;-61
2021/04/13 03:06:54;;;;;;;51.09;26.07;;;;;;;8.27;65.39;100193.42;319192;165;859057;-61
2021/04/13 03:07:56;;;;;;;42.26;24.59;;;;;;;8.28;65.28;100192.57;325122;161;856584;-61
2021/04/13 03:09:01;;;;;;;39.70;24.57;;;;;;;8.28;65.18;100192.57;325465;163;856402;-62
2021/04/13 03:10:06;;;;;;;39.95;24.81;;;;;;;8.30;65.08;100198.59;323161;164;857532;-61
2021/04/13 03:11:15;;;;;;;39.89;24.46;;;;;;;8.32;64.99;100198.62;325002;163;856457;-61
2021/04/13 03:12:17;;;;;;;43.33;24.27;;;;;;;8.31;64.88;100190.00;325305;163;856357;-61
2021/04/13 03:13:22;;;;;;;39.50;24.95;;;;;;;8.30;64.87;100190.86;324029;163;857345;-61
2021/04/13 03:14:24;;;;;;;43.64;25.54;;;;;;;8.29;64.97;100191.72;325251;163;864246;-61
2021/04/13 03:15:29;;;;;;;41.75;24.91;;;;;;;8.29;64.94;100191.72;331729;161;863669;-61
2021/04/13 03:16:35;;;;;;;42.26;26.18;;;;;;;8.29;64.87;100185.70;323941;163;856462;-61
2021/04/13 03:19:28;;;;;;;52.35;25.36;;;;;;;8.38;64.83;100177.13;370089;141;878159;-61
2021/04/13 03:20:42;;;;;;;42.31;25.25;;;;;;;8.28;64.85;100179.67;359371;147;857230;-62
2021/04/13 03:21:52;;;;;;;42.88;25.23;;;;;;;8.24;64.86;100183.09;354901;149;856610;-62
2021/04/13 03:22:55;;;;;;;43.85;26.08;;;;;;;8.23;64.97;100181.36;358037;148;856323;-63
2021/04/13 03:23:57;;;;;;;44.27;25.61;;;;;;;8.22;65.36;100177.06;354407;151;856168;-62
2021/04/13 03:24:59;;;;;;;44.46;26.51;;;;;;;8.24;65.41;100179.66;346568;152;856394;-63
2021/04/13 03:26:03;;;;;;;44.21;25.61;;;;;;;8.24;65.40;100179.66;352143;150;856584;-63
2021/04/13 03:27:08;;;;;;;43.56;26.54;;;;;;;8.28;65.04;100181.41;358295;149;863802;-63
2021/04/13 03:28:11;;;;;;;44.35;26.34;;;;;;;8.28;65.04;100181.41;356740;148;856284;-63
2021/04/13 03:29:18;;;;;;;47.65;26.86;;;;;;;8.29;65.02;100188.29;351403;152;863805;-63
2021/04/13 03:30:26;;;;;;;46.12;26.03;;;;;;;8.29;65.18;100189.14;346936;150;856406;-63
2021/04/13 03:31:32;;;;;;;43.36;25.65;;;;;;;8.31;65.12;100190.00;346711;153;856629;-63
2021/04/13 03:32:37;;;;;;;43.14;25.51;;;;;;;8.33;64.97;100190.88;351933;150;856229;-63
2021/04/13 03:33:39;;;;;;;44.09;25.63;;;;;;;8.34;64.59;100187.44;357475;148;863888;-63
2021/04/13 03:34:41;;;;;;;46.71;25.49;;;;;;;8.32;64.69;100188.30;353691;148;856215;-63
2021/04/13 03:35:43;;;;;;;45.41;25.67;;;;;;;8.32;64.71;100189.15;356289;148;856285;-63
2021/04/13 03:36:46;;;;;;;41.97;25.45;;;;;;;8.32;64.75;100185.72;357050;148;856946;-63
2021/04/13 03:37:48;;;;;;;44.25;24.67;;;;;;;8.33;64.66;100190.88;353884;150;856355;-63
2021/04/13 03:38:55;;;;;;;42.65;24.53;;;;;;;8.35;64.59;100190.90;359391;148;856989;-63
2021/04/13 03:40:00;;;;;;;46.35;26.18;;;;;;;8.37;64.66;100190.89;356950;148;856321;-63
2021/04/13 03:41:01;;;;;;;42.74;25.42;;;;;;;8.38;64.58;100190.03;351732;152;856228;-63
2021/04/13 03:42:04;;;;;;;40.95;25.49;;;;;;;8.37;64.59;100191.77;352616;148;856466;-63
2021/04/13 03:43:06;;;;;;;41.97;25.14;;;;;;;8.37;64.45;100198.62;351401;150;856237;-63
2021/04/13 03:44:08;;;;;;;41.11;24.41;;;;;;;8.35;64.41;100188.31;351993;150;864309;-63
2021/04/13 03:45:12;;;;;;;42.37;25.07;;;;;;;8.37;64.51;100193.47;357400;147;856354;-64
2021/04/13 03:46:14;;;;;;;42.47;24.72;;;;;;;8.37;64.65;100189.19;357459;147;856685;-62
2021/04/13 03:47:18;;;;;;;40.21;24.13;;;;;;;8.38;64.54;100188.33;357754;147;856756;-63
2021/04/13 03:48:22;;;;;;;44.71;26.05;;;;;;;8.38;64.38;100188.33;358560;147;856239;-63
2021/04/13 03:49:32;;;;;;;41.87;25.16;;;;;;;8.38;64.48;100188.33;356309;147;856325;-63
2021/04/13 03:50:39;;;;;;;42.29;24.97;;;;;;;8.40;64.44;100198.64;356883;147;863939;-63
2021/04/13 03:51:47;;;;;;;43.61;24.44;;;;;;;8.39;64.46;100195.22;357774;148;856887;-63
2021/04/13 03:53:01;;;;;;;43.81;24.39;;;;;;;8.39;64.40;100191.77;357057;147;856252;-63
2021/04/13 03:54:23;;;;;;;38.08;24.24;;;;;;;8.37;64.29;100186.61;357589;147;856308;-63
2021/04/13 03:55:25;;;;;;;40.87;24.52;;;;;;;8.37;64.38;100196.05;355794;148;856319;-63
2021/04/13 03:56:28;;;;;;;43.47;25.89;;;;;;;8.35;64.50;100196.06;357468;147;856644;-63
2021/04/13 03:57:34;;;;;;;39.73;25.16;;;;;;;8.38;64.58;100195.20;359886;147;856374;-63
2021/04/13 03:58:39;;;;;;;40.36;23.83;;;;;;;8.39;64.56;100196.92;357107;148;863676;-63
2021/04/13 03:59:43;;;;;;;41.93;25.52;;;;;;;8.40;64.50;100190.91;355487;148;856121;-63
2021/04/13 04:00:46;;;;;;;50.41;25.31;;;;;;;8.40;64.48;100190.91;357634;148;857004;-63
2021/04/13 04:01:49;;;;;;;40.35;25.46;;;;;;;8.40;64.37;100198.64;358021;148;856324;-63
2021/04/13 04:02:51;;;;;;;44.39;25.39;;;;;;;8.38;64.58;100195.20;358495;148;856662;-63
2021/04/13 04:03:58;;;;;;;45.16;25.81;;;;;;;8.37;64.58;100204.67;358484;147;864038;-63
2021/04/13 04:05:15;;;;;;;45.05;24.62;;;;;;;8.36;64.75;100200.36;358467;147;864367;-63
2021/04/13 04:06:39;;;;;;;47.34;25.71;;;;;;;8.34;64.67;100202.92;357666;148;857393;-63
2021/04/13 04:07:48;;;;;;;43.22;24.73;;;;;;;8.36;64.72;100208.11;357809;148;856443;-63
2021/04/13 04:08:48;;;;;;;41.12;23.83;;;;;;;8.34;64.69;100205.50;356647;148;856213;-63
2021/04/13 04:09:50;;;;;;;50.21;26.11;;;;;;;8.33;64.81;100206.36;359260;147;856587;-62
2021/04/13 04:10:54;;;;;;;41.37;24.89;;;;;;;8.33;64.79;100202.92;359332;147;863912;-63
2021/04/13 04:12:01;;;;;;;46.31;25.25;;;;;;;8.35;64.85;100206.37;357414;147;856662;-62
2021/04/13 04:13:05;;;;;;;45.02;26.42;;;;;;;8.36;64.94;100212.39;357231;147;864537;-63
2021/04/13 04:14:16;;;;;;;44.22;24.37;;;;;;;8.37;64.89;100207.25;356811;149;856391;-62
2021/04/13 04:15:22;;;;;;;52.11;26.62;;;;;;;8.38;64.87;100210.67;356783;147;856330;-62
2021/04/13 04:16:32;;;;;;;51.18;26.03;;;;;;;8.38;64.82;100206.39;358644;147;864163;-61
2021/04/13 04:17:35;;;;;;;39.76;24.92;;;;;;;8.40;64.87;100212.42;354812;148;856945;-61
2021/04/13 04:18:42;;;;;;;48.51;26.84;;;;;;;8.40;64.93;100212.42;358562;147;856712;-61
2021/04/13 04:19:55;;;;;;;44.88;25.90;;;;;;;8.41;64.96;100208.99;354866;147;856473;-61
2021/04/13 04:21:02;;;;;;;44.69;25.38;;;;;;;8.42;64.97;100212.42;356521;149;856469;-61
2021/04/13 04:22:09;;;;;;;47.99;26.53;;;;;;;8.43;64.85;100206.41;354772;149;856596;-61
2021/04/13 04:23:17;;;;;;;45.93;26.94;;;;;;;8.45;64.96;100208.15;355210;151;856631;-61
2021/04/13 04:24:22;;;;;;;50.71;25.83;;;;;;;8.45;64.90;100208.15;355049;149;856279;-61
2021/04/13 04:25:38;;;;;;;43.06;24.91;;;;;;;8.47;64.91;100208.14;353648;149;856889;-61
2021/04/13 04:26:55;;;;;;;42.94;25.08;;;;;;;8.49;64.98;100214.23;355194;148;856467;-61
2021/04/13 04:27:56;;;;;;;43.88;26.36;;;;;;;8.50;64.82;100208.22;354057;149;856244;-62
2021/04/13 04:29:15;;;;;;;43.45;25.47;;;;;;;8.51;64.84;100209.95;353258;151;856483;-61
2021/04/13 04:30:28;;;;;;;43.77;25.54;;;;;;;8.52;64.70;100210.80;355370;148;857494;-61
2021/04/13 04:31:35;;;;;;;44.22;26.14;;;;;;;8.53;64.54;100202.20;354801;149;856243;-61
2021/04/13 04:32:40;;;;;;;43.98;25.28;;;;;;;8.55;64.68;100206.52;328442;152;856392;-61
2021/04/13 04:33:42;;;;;;;43.55;25.14;;;;;;;8.57;64.53;100220.30;334728;159;856340;-61
2021/04/13 04:34:47;;;;;;;45.39;26.30;;;;;;;8.54;64.40;100209.95;330703;160;863955;-61
2021/04/13 04:35:49;;;;;;;46.04;26.02;;;;;;;8.52;64.46;100211.67;328489;161;864299;-61
2021/04/13 04:36:52;;;;;;;44.54;26.19;;;;;;;8.52;64.49;100203.92;328609;162;856341;-61
2021/04/13 04:38:06;;;;;;;49.30;26.37;;;;;;;8.52;64.49;100200.47;330308;162;863712;-61
2021/04/13 04:39:23;;;;;;;42.92;24.63;;;;;;;8.52;64.53;100208.21;327405;160;856306;-61
2021/04/13 04:40:30;;;;;;;45.87;25.79;;;;;;;8.53;64.63;100205.66;327150;162;856290;-61
2021/04/13 04:41:41;;;;;;;44.26;26.18;;;;;;;8.54;64.67;100212.54;321999;164;856279;-61
2021/04/13 04:43:02;;;;;;;52.78;26.08;;;;;;;8.56;64.59;100208.25;324537;163;856354;-61
2021/04/13 04:44:04;;;;;;;42.19;25.63;;;;;;;8.57;64.54;100211.67;322985;164;856361;-61
2021/04/13 04:45:12;;;;;;;48.58;26.07;;;;;;;8.58;64.61;100209.12;328924;160;863805;-61
2021/04/13 04:46:33;;;;;;;42.79;25.83;;;;;;;8.61;64.55;100213.41;328318;162;856337;-61
2021/04/13 04:47:37;;;;;;;46.37;25.33;;;;;;;8.61;64.57;100209.13;330566;161;856326;-62
2021/04/13 04:48:39;;;;;;;44.63;26.21;;;;;;;8.62;64.53;100207.39;328372;161;856516;-61
2021/04/13 04:49:41;;;;;;;44.30;26.17;;;;;;;8.65;64.53;100214.30;329509;161;857125;-61
2021/04/13 04:50:46;;;;;;;41.64;25.31;;;;;;;8.66;64.68;100211.71;329320;161;856590;-62
2021/04/13 04:51:50;;;;;;;44.27;26.19;;;;;;;8.70;64.71;100212.60;328352;161;863836;-62
2021/04/13 04:52:51;;;;;;;44.58;26.57;;;;;;;8.74;64.79;100214.34;330407;160;856925;-62
2021/04/13 04:53:53;;;;;;;47.17;26.11;;;;;;;8.77;64.84;100216.94;319664;166;864659;-62
2021/04/13 04:54:55;;;;;;;44.56;25.91;;;;;;;8.81;64.66;100212.63;328770;160;863933;-62
2021/04/13 04:55:58;;;;;;;46.01;25.57;;;;;;;8.81;64.42;100210.92;327440;161;863768;-62
2021/04/13 04:57:00;;;;;;;45.16;25.72;;;;;;;8.82;64.28;100206.61;317033;167;864293;-62
2021/04/13 04:58:01;;;;;;;41.40;24.94;;;;;;;8.81;64.09;100220.37;327946;162;856894;-62
2021/04/13 04:59:03;;;;;;;44.50;25.62;;;;;;;8.82;64.14;100215.23;330057;161;863889;-62
2021/04/13 05:00:06;;;;;;;42.91;24.65;;;;;;;8.82;64.06;100212.65;329284;160;856280;-62
2021/04/13 05:01:08;;;;;;;47.63;26.07;;;;;;;8.81;64.14;100208.34;329972;161;856322;-62
2021/04/13 05:02:09;;;;;;;47.94;25.36;;;;;;;8.83;64.22;100216.08;327897;161;856397;-62
2021/04/13 05:03:11;;;;;;;46.14;24.95;;;;;;;8.81;64.21;100208.34;318424;166;864444;-62
2021/04/13 05:04:13;;;;;;;46.32;25.99;;;;;;;8.81;64.11;100212.63;328236;162;864357;-62
2021/04/13 05:05:15;;;;;;;43.43;24.40;;;;;;;8.80;64.21;100216.06;328250;161;863915;-62